首页
METAR-TAF:

METAR-TAF

机场 :

Hunter Army Airfield / Fort Stewart

薩凡納, 喬治亞, 美国

纬度: 32-01N, 经度: 081-09W, 海拔: 13米

当前天气观测

该预报发布于46分钟前的18:56 UTC
风速11节,风向北转西北
温度 17°C
湿度 52%
气压 1012 hPa
能見度: 16.1公里
天空无云

METAR: KSVN 171856Z AUTO 34011KT 10SM CLR 17/07 A2987 RMK AO2 SLP118 T01650069 $

时间: 14:42 (19:42 UTC)

预报

该预报发布于6小时和42分钟前的13:00 UTC
预报有效从17日的 13点(UTC)到 18日的 19点(UTC)
风速10节,风向,有时为20节阵风
能见度10公里或以上
多云层高于2500英尺
成为
从 17日的 16点(UTC)到 17日的 17点(UTC)
风速10节,风向,有时为15节阵风
能见度10公里或以上
多云层高于1500英尺
成为
从 17日的 20点(UTC)到 17日的 21点(UTC)
风速12节,风向
能见度10公里或以上
少量云层高于1500英尺
散云层高于6000英尺
成为
从 18日的 08点(UTC)到 18日的 09点(UTC)
风速6节,风向多变
能见度10公里或以上
多云层高于1000英尺

TAF: KSVN 171300Z 1713/1819 01010G20KT 9999 BKN025 510102 QNH2994INS BECMG 1716/1717 36010G15KT 9999 BKN015 510002 QNH2988INS BECMG 1720/1721 35012KT 9999 FEW015 SCT060 QNH2984INS BECMG 1808/1809 VRB06KT 9999 BKN010 QNH2979INS TX14/1720Z TN08/1713Z

超过4000个机场的气象观测和天气预报(METAR&TAF报告)。

可查询的气象台以黄色和红色小点在地图上表示。

将鼠标移到小点上方,可查看气象台名称。

然后点击查看天气观测和预报。

如需切换地图:点击带黑十字的绿色按钮放大地图;点击带横线的绿色按钮缩小地图;或者点击绿色箭头查看邻近地区的地图。


METAR-TAF: